createdAt,value
2022-10-08T00:00:10.469Z,8.87
2022-10-08T00:01:15.054Z,8.30
2022-10-08T00:02:16.994Z,9.73
2022-10-08T00:03:20.262Z,8.70
2022-10-08T00:04:22.157Z,8.73
2022-10-08T00:05:23.850Z,7.20
2022-10-08T00:06:30.218Z,7.10
2022-10-08T00:07:32.291Z,7.27
2022-10-08T00:08:39.632Z,8.37
2022-10-08T00:09:42.637Z,8.67
2022-10-08T00:10:55.879Z,8.17
2022-10-08T00:11:57.938Z,8.03
2022-10-08T00:13:04.868Z,8.13
2022-10-08T00:14:08.361Z,7.83
2022-10-08T00:15:10.466Z,8.03
2022-10-08T00:16:14.077Z,8.90
2022-10-08T00:17:15.814Z,9.47
2022-10-08T00:18:17.567Z,9.10
2022-10-08T00:19:19.877Z,9.23
2022-10-08T00:20:23.162Z,8.27
2022-10-08T00:21:36.466Z,7.90
2022-10-08T00:22:38.282Z,9.37
2022-10-08T00:23:41.030Z,8.67
2022-10-08T00:24:42.739Z,8.70
2022-10-08T00:25:44.963Z,8.00
2022-10-08T00:26:47.218Z,8.53
2022-10-08T00:27:51.241Z,8.63
2022-10-08T00:28:56.277Z,8.40
2022-10-08T00:29:58.318Z,8.67
2022-10-08T00:31:06.518Z,8.73
2022-10-08T00:32:08.331Z,7.70
2022-10-08T00:33:10.635Z,10.03
2022-10-08T00:34:20.811Z,8.90
2022-10-08T00:35:23.149Z,8.13
2022-10-08T00:36:27.345Z,8.97
2022-10-08T00:37:29.189Z,8.30
2022-10-08T00:38:33.734Z,8.37
2022-10-08T00:39:35.954Z,8.80
2022-10-08T00:40:45.402Z,8.53
2022-10-08T00:41:52.214Z,8.37
2022-10-08T00:42:53.971Z,8.30
2022-10-08T00:44:03.360Z,9.00
2022-10-08T00:45:06.397Z,8.73
2022-10-08T00:46:15.282Z,9.13
2022-10-08T00:47:34.872Z,8.53
2022-10-08T00:48:37.278Z,8.07
2022-10-08T00:49:39.061Z,8.87
2022-10-08T00:50:41.651Z,8.03
2022-10-08T00:51:50.151Z,7.33
2022-10-08T00:52:58.860Z,8.83
2022-10-08T00:54:02.369Z,8.00
2022-10-08T00:55:07.585Z,7.33
2022-10-08T00:56:09.227Z,7.70
2022-10-08T00:57:11.939Z,8.83
2022-10-08T00:58:23.072Z,8.17
2022-10-08T00:59:26.962Z,9.20
2022-10-08T01:00:30.058Z,8.77
2022-10-08T01:01:32.439Z,7.87
2022-10-08T01:02:34.376Z,7.80
2022-10-08T01:03:36.165Z,8.27
2022-10-08T01:04:40.754Z,7.70
2022-10-08T01:05:48.337Z,8.67
2022-10-08T01:07:24.936Z,8.00
2022-10-08T01:08:36.250Z,8.83
2022-10-08T01:10:02.935Z,8.37
2022-10-08T01:11:04.869Z,7.40
2022-10-08T01:12:12.479Z,7.80
2022-10-08T01:13:22.496Z,7.60
2022-10-08T01:14:33.138Z,7.33
2022-10-08T01:15:51.653Z,7.20
2022-10-08T01:17:05.927Z,7.97
2022-10-08T01:18:11.341Z,7.57
2022-10-08T01:20:01.607Z,8.00
2022-10-08T01:21:12.124Z,7.60
2022-10-08T01:22:25.926Z,8.37
2022-10-08T01:23:55.675Z,7.70
2022-10-08T01:25:28.753Z,8.50
2022-10-08T01:26:46.153Z,7.50
2022-10-08T01:28:00.871Z,7.90
2022-10-08T01:29:21.769Z,7.50
2022-10-08T01:30:24.399Z,8.27
2022-10-08T01:31:39.485Z,7.30
2022-10-08T01:32:51.379Z,7.40
2022-10-08T01:34:08.262Z,7.97
2022-10-08T01:35:20.186Z,8.63
2022-10-08T01:36:23.833Z,8.37
2022-10-08T01:37:33.093Z,7.50
2022-10-08T01:38:41.430Z,8.10
2022-10-08T01:39:47.008Z,6.80
2022-10-08T01:40:53.103Z,7.90
2022-10-08T01:41:58.744Z,7.47
2022-10-08T01:43:01.836Z,6.70
2022-10-08T01:44:35.559Z,7.80
2022-10-08T01:45:43.585Z,7.27
2022-10-08T01:46:48.996Z,9.17
2022-10-08T01:47:52.308Z,8.50
2022-10-08T01:49:00.994Z,8.30
2022-10-08T01:50:23.408Z,8.50
2022-10-08T01:51:29.113Z,9.00
2022-10-08T01:52:37.356Z,8.80
2022-10-08T01:53:42.597Z,9.40
2022-10-08T01:54:48.349Z,9.57
2022-10-08T01:55:54.207Z,10.00
2022-10-08T01:56:59.227Z,11.27
2022-10-08T01:58:06.986Z,9.57
2022-10-08T01:59:14.395Z,9.37
2022-10-08T02:00:16.159Z,8.17
2022-10-08T02:01:24.189Z,9.20
2022-10-08T02:02:26.516Z,10.13
2022-10-08T02:03:28.169Z,9.13
2022-10-08T02:04:34.806Z,9.53
2022-10-08T02:05:43.609Z,9.43
2022-10-08T02:06:50.719Z,9.73
2022-10-08T02:07:54.273Z,9.30
2022-10-08T02:08:56.235Z,9.07
2022-10-08T02:10:12.270Z,11.00
2022-10-08T02:11:14.287Z,9.23
2022-10-08T02:12:16.407Z,9.77
2022-10-08T02:13:18.118Z,10.03
2022-10-08T02:14:25.800Z,10.63
2022-10-08T02:15:38.621Z,11.73
2022-10-08T02:16:48.159Z,12.30
2022-10-08T02:18:07.841Z,14.20
2022-10-08T02:19:16.026Z,15.07
2022-10-08T02:21:00.296Z,14.37
2022-10-08T02:22:06.186Z,12.60
2022-10-08T02:23:21.369Z,12.63
2022-10-08T02:24:43.723Z,12.10
2022-10-08T02:26:05.802Z,12.73
2022-10-08T02:27:11.131Z,14.00
2022-10-08T02:28:37.272Z,13.20
2022-10-08T02:29:51.317Z,15.40
2022-10-08T02:31:00.090Z,15.07
2022-10-08T02:32:36.519Z,14.47
2022-10-08T02:33:47.765Z,12.80
2022-10-08T02:35:10.018Z,14.53
2022-10-08T02:36:16.945Z,14.90
2022-10-08T02:37:25.671Z,14.73
2022-10-08T02:38:40.869Z,15.03
2022-10-08T02:39:49.290Z,15.20
2022-10-08T02:40:55.504Z,13.50
2022-10-08T02:42:02.285Z,14.30
2022-10-08T02:43:12.664Z,12.20
2022-10-08T02:44:20.114Z,12.60
2022-10-08T02:45:28.953Z,12.73
2022-10-08T02:46:36.170Z,12.60
2022-10-08T02:47:40.656Z,10.90
2022-10-08T02:48:47.872Z,11.93
2022-10-08T02:50:05.080Z,10.70
2022-10-08T02:51:12.109Z,12.37
2022-10-08T02:52:15.316Z,11.57
2022-10-08T02:53:18.332Z,11.90
2022-10-08T02:54:22.854Z,12.63
2022-10-08T02:55:35.836Z,11.87
2022-10-08T02:57:07.026Z,10.10
2022-10-08T02:58:12.864Z,12.20
2022-10-08T02:59:18.000Z,9.70
2022-10-08T03:00:19.954Z,12.00
2022-10-08T03:01:44.878Z,10.30
2022-10-08T03:02:58.789Z,10.53
2022-10-08T03:04:05.823Z,10.60
2022-10-08T03:05:17.941Z,11.67
2022-10-08T03:06:19.932Z,11.80
2022-10-08T03:07:24.366Z,10.77
2022-10-08T03:08:26.321Z,11.53
2022-10-08T03:09:41.274Z,11.83
2022-10-08T03:10:44.703Z,11.87
2022-10-08T03:11:47.199Z,11.53
2022-10-08T03:12:50.171Z,13.27
2022-10-08T03:13:58.294Z,11.93
2022-10-08T03:15:00.919Z,12.33
2022-10-08T03:16:06.275Z,11.97
2022-10-08T03:17:10.423Z,10.77
2022-10-08T03:18:13.000Z,12.17
2022-10-08T03:19:16.769Z,11.03
2022-10-08T03:20:18.539Z,11.53
2022-10-08T03:21:20.968Z,11.80
2022-10-08T03:22:24.230Z,11.37
2022-10-08T03:23:26.200Z,10.40
2022-10-08T03:24:28.075Z,10.60
2022-10-08T03:25:30.189Z,11.57
2022-10-08T03:26:31.822Z,10.37
2022-10-08T03:27:35.299Z,10.63
2022-10-08T03:28:38.159Z,9.80
2022-10-08T03:29:39.900Z,11.27
2022-10-08T03:30:41.537Z,10.77
2022-10-08T03:31:43.529Z,11.10
2022-10-08T03:32:45.447Z,11.23
2022-10-08T03:33:51.181Z,12.40
2022-10-08T03:34:54.991Z,11.77
2022-10-08T03:35:58.938Z,12.10
2022-10-08T03:37:00.473Z,13.60
2022-10-08T03:38:02.567Z,13.83
2022-10-08T03:39:04.207Z,12.30
2022-10-08T03:40:06.336Z,13.73
2022-10-08T03:41:09.479Z,13.20
2022-10-08T03:42:12.697Z,13.00
2022-10-08T03:43:14.400Z,14.00
2022-10-08T03:44:16.625Z,12.00
2022-10-08T03:45:18.464Z,10.43
2022-10-08T03:46:20.637Z,11.10
2022-10-08T03:47:22.256Z,10.13
2022-10-08T03:48:24.172Z,10.60
2022-10-08T03:49:25.697Z,10.60
2022-10-08T03:50:27.719Z,11.50
2022-10-08T03:51:29.848Z,12.30
2022-10-08T03:52:31.710Z,11.10
2022-10-08T03:53:34.810Z,10.53
2022-10-08T03:54:37.724Z,11.40
2022-10-08T03:55:39.965Z,10.33
2022-10-08T03:56:41.713Z,9.83
2022-10-08T03:57:43.833Z,9.90
2022-10-08T03:58:48.232Z,10.80
2022-10-08T03:59:51.954Z,10.43
2022-10-08T04:01:05.992Z,10.80
2022-10-08T04:02:07.887Z,10.90
2022-10-08T04:03:11.024Z,11.30
2022-10-08T04:04:12.721Z,11.37
2022-10-08T04:05:14.700Z,11.33
2022-10-08T04:06:16.480Z,9.40
2022-10-08T04:07:18.174Z,11.07
2022-10-08T04:08:22.010Z,11.17
2022-10-08T04:09:23.576Z,11.80
2022-10-08T04:10:25.642Z,10.00
2022-10-08T04:11:29.950Z,12.03
2022-10-08T04:12:31.581Z,11.37
2022-10-08T04:13:35.247Z,11.80
2022-10-08T04:14:36.703Z,10.70
2022-10-08T04:15:38.512Z,10.33
2022-10-08T04:16:40.341Z,11.57
2022-10-08T04:17:42.900Z,10.27
2022-10-08T04:18:46.174Z,11.40
2022-10-08T04:19:47.816Z,10.00
2022-10-08T04:20:49.359Z,10.93
2022-10-08T04:21:51.382Z,11.27
2022-10-08T04:22:53.116Z,10.30
2022-10-08T04:23:56.144Z,11.33
2022-10-08T04:24:59.924Z,11.60
2022-10-08T04:26:02.142Z,9.80
2022-10-08T04:27:03.934Z,9.00
2022-10-08T04:28:06.383Z,8.73
2022-10-08T04:29:13.275Z,10.80
2022-10-08T04:30:15.884Z,8.23
2022-10-08T04:31:20.687Z,9.73
2022-10-08T04:32:22.326Z,10.10
2022-10-08T04:33:24.673Z,9.27
2022-10-08T04:34:27.253Z,10.43
2022-10-08T04:35:28.848Z,9.50
2022-10-08T04:36:30.463Z,9.47
2022-10-08T04:37:32.044Z,8.60
2022-10-08T04:38:33.564Z,9.30
2022-10-08T04:39:35.291Z,8.50
2022-10-08T04:40:36.907Z,9.90
2022-10-08T04:41:38.522Z,10.00
2022-10-08T04:42:40.251Z,10.00
2022-10-08T04:43:43.959Z,10.70
2022-10-08T04:44:46.013Z,9.50
2022-10-08T04:45:48.974Z,9.97
2022-10-08T04:46:51.800Z,9.60
2022-10-08T04:47:53.975Z,9.10
2022-10-08T04:48:57.220Z,10.27
2022-10-08T04:49:58.800Z,9.93
2022-10-08T04:51:06.824Z,10.93
2022-10-08T04:52:12.058Z,10.47
2022-10-08T04:53:19.125Z,10.17
2022-10-08T04:54:20.645Z,10.10
2022-10-08T04:55:24.789Z,9.20
2022-10-08T04:56:28.889Z,9.10
2022-10-08T04:57:35.045Z,10.47
2022-10-08T04:58:37.127Z,10.00
2022-10-08T04:59:53.749Z,9.40
2022-10-08T05:01:08.340Z,9.93
2022-10-08T05:02:11.428Z,9.10
2022-10-08T05:03:13.299Z,10.00
2022-10-08T05:04:15.334Z,10.70
2022-10-08T05:05:17.060Z,9.33
2022-10-08T05:06:23.007Z,9.37
2022-10-08T05:07:24.572Z,9.50
2022-10-08T05:08:26.242Z,10.43
2022-10-08T05:09:30.414Z,9.70
2022-10-08T05:10:32.475Z,9.87
2022-10-08T05:11:34.546Z,10.33
2022-10-08T05:12:36.038Z,9.90
2022-10-08T05:13:37.996Z,9.67
2022-10-08T05:14:39.997Z,10.20
2022-10-08T05:15:41.631Z,10.20
2022-10-08T05:16:44.614Z,9.73
2022-10-08T05:17:46.731Z,9.50
2022-10-08T05:18:50.918Z,11.30
2022-10-08T05:19:53.657Z,11.40
2022-10-08T05:20:55.553Z,9.23
2022-10-08T05:21:57.098Z,10.00
2022-10-08T05:22:58.728Z,10.40
2022-10-08T05:24:09.017Z,10.17
2022-10-08T05:25:10.837Z,11.47
2022-10-08T05:26:41.553Z,10.03
2022-10-08T05:27:46.541Z,10.40
2022-10-08T05:28:48.840Z,9.37
2022-10-08T05:29:50.484Z,10.03
2022-10-08T05:30:52.780Z,9.50
2022-10-08T05:31:54.766Z,8.80
2022-10-08T05:33:00.587Z,9.80
2022-10-08T05:34:02.454Z,8.67
2022-10-08T05:35:04.475Z,9.70
2022-10-08T05:36:09.677Z,9.10
2022-10-08T05:37:11.450Z,8.40
2022-10-08T05:38:13.358Z,8.83
2022-10-08T05:39:15.333Z,8.87
2022-10-08T05:40:17.097Z,9.10
2022-10-08T05:41:24.128Z,9.17
2022-10-08T05:42:25.728Z,7.67
2022-10-08T05:43:27.272Z,8.50
2022-10-08T05:44:28.930Z,8.97
2022-10-08T05:45:30.780Z,7.33
2022-10-08T05:46:34.034Z,8.33
2022-10-08T05:47:35.782Z,7.30
2022-10-08T05:48:38.361Z,7.70
2022-10-08T05:49:39.960Z,6.90
2022-10-08T05:50:41.548Z,8.00
2022-10-08T05:51:43.236Z,9.20
2022-10-08T05:52:45.292Z,8.57
2022-10-08T05:53:50.574Z,8.07
2022-10-08T05:54:52.224Z,7.57
2022-10-08T05:56:01.143Z,8.50
2022-10-08T05:57:02.788Z,8.13
2022-10-08T05:58:04.347Z,8.17
2022-10-08T05:59:05.974Z,6.93
2022-10-08T06:00:08.840Z,8.90
2022-10-08T06:01:20.667Z,8.30
2022-10-08T06:02:22.785Z,8.93
2022-10-08T06:03:24.498Z,9.17
2022-10-08T06:04:26.161Z,9.73
2022-10-08T06:05:28.119Z,8.90
2022-10-08T06:06:31.101Z,7.60
2022-10-08T06:07:34.062Z,8.33
2022-10-08T06:08:37.258Z,7.70
2022-10-08T06:09:39.121Z,8.00
2022-10-08T06:10:52.133Z,7.00
2022-10-08T06:11:53.866Z,8.20
2022-10-08T06:12:55.443Z,7.60
2022-10-08T06:13:59.362Z,7.53
2022-10-08T06:15:00.901Z,7.70
2022-10-08T06:16:05.315Z,7.83
2022-10-08T06:17:07.209Z,8.20
2022-10-08T06:18:09.834Z,8.50
2022-10-08T06:19:11.646Z,6.83
2022-10-08T06:20:14.040Z,7.50
2022-10-08T06:21:18.143Z,7.23
2022-10-08T06:22:19.911Z,7.50
2022-10-08T06:23:22.828Z,7.23
2022-10-08T06:24:24.541Z,6.97
2022-10-08T06:25:26.102Z,7.37
2022-10-08T06:26:35.592Z,8.03
2022-10-08T06:27:37.890Z,7.50
2022-10-08T06:28:40.074Z,7.40
2022-10-08T06:29:42.456Z,6.83
2022-10-08T06:30:44.074Z,6.60
2022-10-08T06:31:46.394Z,5.80
2022-10-08T06:32:48.351Z,6.17
2022-10-08T06:33:50.235Z,6.37
2022-10-08T06:34:52.707Z,5.97
2022-10-08T06:35:56.176Z,6.77
2022-10-08T06:36:57.891Z,6.67
2022-10-08T06:37:59.432Z,6.40
2022-10-08T06:39:08.495Z,5.70
2022-10-08T06:40:11.228Z,6.73
2022-10-08T06:41:13.149Z,6.30
2022-10-08T06:42:14.667Z,5.30
2022-10-08T06:43:19.760Z,6.30
2022-10-08T06:44:21.637Z,5.43
2022-10-08T06:45:23.581Z,6.57
2022-10-08T06:46:26.334Z,7.20
2022-10-08T06:47:28.913Z,5.47
2022-10-08T06:48:30.963Z,7.33
2022-10-08T06:49:32.784Z,8.17
2022-10-08T06:50:35.375Z,7.40
2022-10-08T06:51:37.400Z,7.67
2022-10-08T06:52:39.279Z,7.13
2022-10-08T06:53:42.496Z,7.33
2022-10-08T06:54:44.172Z,6.20
2022-10-08T06:55:46.010Z,6.50
2022-10-08T06:56:47.572Z,6.90
2022-10-08T06:57:49.607Z,6.47
2022-10-08T06:58:52.953Z,7.63
2022-10-08T06:59:54.731Z,7.80
2022-10-08T07:01:09.988Z,7.30
2022-10-08T07:02:12.043Z,6.57
2022-10-08T07:03:14.040Z,6.87
2022-10-08T07:04:15.621Z,6.93
2022-10-08T07:05:17.884Z,7.00
2022-10-08T07:06:19.929Z,5.93
2022-10-08T07:07:21.533Z,5.43
2022-10-08T07:08:24.730Z,7.10
2022-10-08T07:09:26.530Z,5.90
2022-10-08T07:10:33.012Z,5.23
2022-10-08T07:11:35.716Z,6.03
2022-10-08T07:12:37.811Z,5.73
2022-10-08T07:13:40.350Z,5.47
2022-10-08T07:14:42.547Z,5.10
2022-10-08T07:15:44.155Z,5.60
2022-10-08T07:16:47.708Z,5.80
2022-10-08T07:17:49.486Z,5.63
2022-10-08T07:18:53.398Z,5.17
2022-10-08T07:19:58.982Z,6.10
2022-10-08T07:21:00.887Z,6.13
2022-10-08T07:22:02.782Z,6.03
2022-10-08T07:23:05.604Z,6.47
2022-10-08T07:24:07.575Z,6.43
2022-10-08T07:25:09.428Z,5.87
2022-10-08T07:26:17.061Z,6.23
2022-10-08T07:27:19.854Z,5.43
2022-10-08T07:28:21.890Z,6.90
2022-10-08T07:29:24.974Z,6.97
2022-10-08T07:30:26.718Z,6.47
2022-10-08T07:31:33.070Z,9.00
2022-10-08T07:32:34.869Z,8.10
2022-10-08T07:33:36.700Z,7.03
2022-10-08T07:34:39.574Z,7.00
2022-10-08T07:35:41.437Z,7.70
2022-10-08T07:36:43.565Z,7.60
2022-10-08T07:37:45.445Z,7.47
2022-10-08T07:38:48.075Z,7.07
2022-10-08T07:39:49.803Z,7.20
2022-10-08T07:40:55.390Z,7.30
2022-10-08T07:41:56.918Z,7.77
2022-10-08T07:42:58.482Z,7.23
2022-10-08T07:44:02.523Z,10.90
2022-10-08T07:45:05.008Z,9.17
2022-10-08T07:46:07.634Z,9.43
2022-10-08T07:47:11.370Z,8.10
2022-10-08T07:48:13.106Z,7.97
2022-10-08T07:49:16.506Z,5.80
2022-10-08T07:50:18.794Z,6.30
2022-10-08T07:51:20.858Z,6.50
2022-10-08T07:52:22.548Z,7.57
2022-10-08T07:53:24.188Z,7.47
2022-10-08T07:54:25.910Z,7.30
2022-10-08T07:55:28.033Z,8.27
2022-10-08T07:56:32.147Z,8.53
2022-10-08T07:57:34.766Z,9.47
2022-10-08T07:58:37.465Z,7.77
2022-10-08T07:59:39.349Z,6.10
2022-10-08T08:00:43.087Z,6.33
2022-10-08T08:01:45.302Z,6.73
2022-10-08T08:02:48.847Z,6.77
2022-10-08T08:03:55.184Z,6.63
2022-10-08T08:04:57.157Z,6.73
2022-10-08T08:06:13.915Z,6.33
2022-10-08T08:07:17.249Z,6.40
2022-10-08T08:08:18.867Z,8.67
2022-10-08T08:09:21.210Z,9.20
2022-10-08T08:10:23.138Z,9.83
2022-10-08T08:11:25.289Z,8.20
2022-10-08T08:12:26.881Z,7.63
2022-10-08T08:13:36.550Z,8.40
2022-10-08T08:14:39.631Z,4.00
2022-10-08T08:15:41.122Z,4.50
2022-10-08T08:16:43.088Z,4.50
2022-10-08T08:17:44.824Z,4.43
2022-10-08T08:18:49.623Z,3.73
2022-10-08T08:19:51.345Z,4.23
2022-10-08T08:21:20.829Z,4.00
2022-10-08T08:22:22.677Z,4.03
2022-10-08T08:23:24.416Z,4.20
2022-10-08T08:24:26.379Z,4.50
2022-10-08T08:25:29.384Z,4.67
2022-10-08T08:26:33.989Z,4.60
2022-10-08T08:27:35.733Z,4.47
2022-10-08T08:28:39.251Z,5.17
2022-10-08T08:29:41.477Z,4.63
2022-10-08T08:30:43.460Z,4.83
2022-10-08T08:31:47.907Z,4.20
2022-10-08T08:32:50.130Z,2.60
2022-10-08T08:33:54.697Z,3.23
2022-10-08T08:34:56.664Z,2.70
2022-10-08T08:35:58.383Z,3.10
2022-10-08T08:37:00.573Z,2.43
2022-10-08T08:38:02.268Z,3.10
2022-10-08T08:39:06.648Z,2.77
2022-10-08T08:40:09.738Z,3.00
2022-10-08T08:41:21.018Z,3.00
2022-10-08T08:42:49.699Z,3.40
2022-10-08T08:44:02.782Z,3.47
2022-10-08T08:45:48.128Z,2.10
2022-10-08T08:46:57.416Z,2.37
2022-10-08T08:48:23.202Z,2.27
2022-10-08T08:49:34.806Z,2.60
2022-10-08T08:50:40.731Z,3.00
2022-10-08T08:51:42.603Z,3.20
2022-10-08T08:52:45.645Z,2.80
2022-10-08T08:53:47.866Z,2.57
2022-10-08T08:54:53.426Z,2.93
2022-10-08T08:55:59.135Z,2.43
2022-10-08T08:57:34.307Z,3.83
2022-10-08T08:58:50.827Z,2.97
2022-10-08T08:59:55.948Z,2.60
2022-10-08T09:01:12.804Z,2.43
2022-10-08T09:02:24.199Z,2.33
2022-10-08T09:03:34.800Z,2.30
2022-10-08T09:04:44.908Z,2.20
2022-10-08T09:05:51.251Z,3.00
2022-10-08T09:06:56.514Z,2.80
2022-10-08T09:08:07.260Z,2.27
2022-10-08T09:09:47.302Z,2.63
2022-10-08T09:11:01.966Z,2.53
2022-10-08T09:12:21.150Z,2.30
2022-10-08T09:13:48.825Z,2.27
2022-10-08T09:14:54.583Z,2.47
2022-10-08T09:15:57.147Z,2.80
2022-10-08T09:17:02.320Z,2.47
2022-10-08T09:18:04.741Z,2.57
2022-10-08T09:19:06.664Z,2.20
2022-10-08T09:20:13.512Z,2.60
2022-10-08T09:21:16.181Z,2.20
2022-10-08T09:22:22.277Z,3.37
2022-10-08T09:23:26.044Z,2.50
2022-10-08T09:24:30.020Z,2.03
2022-10-08T09:25:34.522Z,2.53
2022-10-08T09:26:36.686Z,2.33
2022-10-08T09:27:55.408Z,2.77
2022-10-08T09:28:59.767Z,2.13
2022-10-08T09:30:01.590Z,2.33
2022-10-08T09:31:30.537Z,3.30
2022-10-08T09:32:32.404Z,2.30
2022-10-08T09:33:34.982Z,2.60
2022-10-08T09:34:37.128Z,2.80
2022-10-08T09:35:51.646Z,3.13
2022-10-08T09:37:02.113Z,2.20
2022-10-08T09:38:06.080Z,2.23
2022-10-08T09:39:24.390Z,2.67
2022-10-08T09:40:28.046Z,2.40
2022-10-08T09:41:30.367Z,2.40
2022-10-08T09:42:31.899Z,2.97
2022-10-08T09:43:35.020Z,2.63
2022-10-08T09:44:50.359Z,2.80
2022-10-08T09:45:54.517Z,2.90
2022-10-08T09:47:05.695Z,2.87
2022-10-08T09:48:30.691Z,2.83
2022-10-08T09:49:39.932Z,3.03
2022-10-08T09:50:50.866Z,2.93
2022-10-08T09:51:54.095Z,2.73
2022-10-08T09:52:56.229Z,2.77
2022-10-08T09:53:59.956Z,2.10
2022-10-08T09:55:09.983Z,3.03
2022-10-08T09:56:13.907Z,2.80
2022-10-08T09:57:21.085Z,3.13
2022-10-08T09:58:24.052Z,2.13
2022-10-08T09:59:29.161Z,3.00
2022-10-08T10:00:32.793Z,3.07
2022-10-08T10:01:45.587Z,2.27
2022-10-08T10:02:54.133Z,2.43
2022-10-08T10:03:59.076Z,2.83
2022-10-08T10:05:04.384Z,2.40
2022-10-08T10:06:06.319Z,3.10
2022-10-08T10:07:08.045Z,2.87
2022-10-08T10:08:46.541Z,2.87
2022-10-08T10:09:57.506Z,2.73
2022-10-08T10:11:00.487Z,2.43
2022-10-08T10:12:25.029Z,3.00
2022-10-08T10:13:36.631Z,2.50
2022-10-08T10:14:52.253Z,2.67
2022-10-08T10:16:00.532Z,2.80
2022-10-08T10:17:08.726Z,3.20
2022-10-08T10:18:19.202Z,2.87
2022-10-08T10:19:25.755Z,2.73
2022-10-08T10:20:37.191Z,2.63
2022-10-08T10:22:01.277Z,2.53
2022-10-08T10:23:11.426Z,2.80
2022-10-08T10:24:31.009Z,3.43
2022-10-08T10:25:57.536Z,3.43
2022-10-08T10:27:10.348Z,2.90
2022-10-08T10:28:16.012Z,3.80
2022-10-08T10:29:22.670Z,2.70
2022-10-08T10:30:27.202Z,3.00
2022-10-08T10:31:33.686Z,2.83
2022-10-08T10:32:44.940Z,2.60
2022-10-08T10:33:54.526Z,3.03
2022-10-08T10:35:06.125Z,2.83
2022-10-08T10:36:13.870Z,3.10
2022-10-08T10:37:34.154Z,3.73
2022-10-08T10:38:43.292Z,3.40
2022-10-08T10:39:54.117Z,3.50
2022-10-08T10:41:20.382Z,2.93
2022-10-08T10:42:25.131Z,2.37
2022-10-08T10:43:49.021Z,2.70
2022-10-08T10:45:01.695Z,2.93
2022-10-08T10:46:12.553Z,3.20
2022-10-08T10:47:17.571Z,2.23
2022-10-08T10:48:19.406Z,2.90
2022-10-08T10:49:34.567Z,2.93
2022-10-08T10:51:12.817Z,2.53
2022-10-08T10:52:36.022Z,2.70
2022-10-08T10:53:50.102Z,2.80
2022-10-08T10:55:13.438Z,2.90
2022-10-08T10:56:20.219Z,2.90
2022-10-08T10:57:40.391Z,3.30
2022-10-08T10:58:58.510Z,2.40
2022-10-08T11:00:13.342Z,3.03
2022-10-08T11:01:34.635Z,2.80
2022-10-08T11:02:59.195Z,2.40
2022-10-08T11:04:03.862Z,3.30
2022-10-08T11:05:22.154Z,2.73
2022-10-08T11:06:36.135Z,2.17
2022-10-08T11:07:49.986Z,2.50
2022-10-08T11:09:10.746Z,2.30
2022-10-08T11:10:32.820Z,3.50
2022-10-08T11:11:41.364Z,2.60
2022-10-08T11:12:56.602Z,3.00
2022-10-08T11:14:15.862Z,2.70
2022-10-08T11:15:29.577Z,2.50
2022-10-08T11:16:46.062Z,2.47
2022-10-08T11:17:51.984Z,2.00
2022-10-08T11:18:56.693Z,2.23
2022-10-08T11:20:10.120Z,1.90
2022-10-08T11:21:33.593Z,1.87
2022-10-08T11:22:35.417Z,2.67
2022-10-08T11:24:13.613Z,2.60
2022-10-08T11:25:18.081Z,2.67
2022-10-08T11:26:33.057Z,2.23
2022-10-08T11:28:03.981Z,2.87
2022-10-08T11:29:17.493Z,2.73
2022-10-08T11:30:28.279Z,2.53
2022-10-08T11:31:48.367Z,2.73
2022-10-08T11:32:53.011Z,2.83
2022-10-08T11:33:56.812Z,2.47
2022-10-08T11:35:22.208Z,2.37
2022-10-08T11:36:33.283Z,2.00
2022-10-08T11:37:44.619Z,2.77
2022-10-08T11:39:18.183Z,2.00
2022-10-08T11:40:27.580Z,2.50
2022-10-08T11:41:48.456Z,2.13
2022-10-08T11:43:08.198Z,2.27
2022-10-08T11:44:11.672Z,1.80
2022-10-08T11:45:15.345Z,2.10
2022-10-08T11:46:34.405Z,2.60
2022-10-08T11:47:49.608Z,1.93
2022-10-08T11:48:51.336Z,1.93
2022-10-08T11:49:55.665Z,1.73
2022-10-08T11:51:19.243Z,2.00
2022-10-08T11:52:20.767Z,1.90
2022-10-08T11:53:22.957Z,2.10
2022-10-08T11:54:35.505Z,2.07
2022-10-08T11:55:38.626Z,1.70
2022-10-08T11:56:42.108Z,1.80
2022-10-08T11:58:07.701Z,1.93
2022-10-08T11:59:48.293Z,1.80
2022-10-08T12:00:53.771Z,2.00
2022-10-08T12:01:59.035Z,1.90
2022-10-08T12:03:01.357Z,1.97
2022-10-08T12:04:10.816Z,1.40
2022-10-08T12:05:34.416Z,2.00
2022-10-08T12:06:36.795Z,1.90
2022-10-08T12:07:39.902Z,2.20
2022-10-08T12:08:53.622Z,1.63
2022-10-08T12:10:08.568Z,1.80
2022-10-08T12:11:33.594Z,2.63
2022-10-08T12:12:50.842Z,2.10
2022-10-08T12:14:18.758Z,2.70
2022-10-08T12:15:23.188Z,1.90
2022-10-08T12:16:47.994Z,1.87
2022-10-08T12:17:55.324Z,2.13
2022-10-08T12:18:58.096Z,2.17
2022-10-08T12:20:25.849Z,2.47
2022-10-08T12:21:27.819Z,1.90
2022-10-08T12:22:29.361Z,2.20
2022-10-08T12:23:38.727Z,2.47
2022-10-08T12:24:40.286Z,1.80
2022-10-08T12:26:02.676Z,1.50
2022-10-08T12:27:30.269Z,2.00
2022-10-08T12:28:54.745Z,2.30
2022-10-08T12:29:56.448Z,1.90
2022-10-08T12:31:16.099Z,1.77
2022-10-08T12:32:18.061Z,2.00
2022-10-08T12:33:20.810Z,1.70
2022-10-08T12:34:23.415Z,2.00
2022-10-08T12:35:31.475Z,1.80
2022-10-08T12:36:50.428Z,2.00
2022-10-08T12:37:58.058Z,2.10
2022-10-08T12:39:24.973Z,1.97
2022-10-08T12:40:54.643Z,1.43
2022-10-08T12:42:20.995Z,1.57
2022-10-08T12:43:41.977Z,1.50
2022-10-08T12:45:02.422Z,1.60
2022-10-08T12:46:17.745Z,1.63
2022-10-08T12:47:42.852Z,1.50
2022-10-08T12:48:57.914Z,2.07
2022-10-08T12:50:24.955Z,1.50
2022-10-08T12:51:47.021Z,1.83
2022-10-08T12:52:49.071Z,1.87
2022-10-08T12:53:50.765Z,1.60
2022-10-08T12:54:57.459Z,1.90
2022-10-08T12:56:00.068Z,1.30
2022-10-08T12:57:08.989Z,1.63
2022-10-08T12:58:19.049Z,2.27
2022-10-08T12:59:24.122Z,2.40
2022-10-08T13:00:31.413Z,1.90
2022-10-08T13:01:37.971Z,2.33
2022-10-08T13:02:42.717Z,2.00
2022-10-08T13:03:44.673Z,2.23
2022-10-08T13:04:46.994Z,1.57
2022-10-08T13:05:49.860Z,1.53
2022-10-08T13:06:53.972Z,1.47
2022-10-08T13:07:57.525Z,1.30
2022-10-08T13:08:59.472Z,1.27
2022-10-08T13:10:17.358Z,1.27
2022-10-08T13:11:20.659Z,0.90
2022-10-08T13:12:22.757Z,1.10
2022-10-08T13:13:39.696Z,1.30
2022-10-08T13:14:41.527Z,1.40
2022-10-08T13:15:43.159Z,1.50
2022-10-08T13:16:46.791Z,1.53
2022-10-08T13:17:50.501Z,1.27
2022-10-08T13:19:00.529Z,1.30
2022-10-08T13:20:17.091Z,0.93
2022-10-08T13:21:55.463Z,1.03
2022-10-08T13:22:58.201Z,1.10
2022-10-08T13:24:21.361Z,1.20
2022-10-08T13:25:38.567Z,1.20
2022-10-08T13:26:52.170Z,1.00
2022-10-08T13:28:09.358Z,0.90
2022-10-08T13:29:30.999Z,1.23
2022-10-08T13:30:33.835Z,1.40
2022-10-08T13:31:36.222Z,1.13
2022-10-08T13:32:39.540Z,1.27
2022-10-08T13:33:41.392Z,1.10
2022-10-08T13:34:47.188Z,1.23
2022-10-08T13:36:00.084Z,1.63
2022-10-08T13:37:06.374Z,1.00
2022-10-08T13:38:16.149Z,1.10
2022-10-08T13:39:26.446Z,1.27
2022-10-08T13:40:28.054Z,1.33
2022-10-08T13:41:29.669Z,1.00
2022-10-08T13:42:35.007Z,1.17
2022-10-08T13:43:36.866Z,1.20
2022-10-08T13:44:40.429Z,1.10
2022-10-08T13:45:42.042Z,1.20
2022-10-08T13:46:44.018Z,1.40
2022-10-08T13:47:46.189Z,0.77
2022-10-08T13:48:48.160Z,1.20
2022-10-08T13:49:51.123Z,1.07
2022-10-08T13:50:53.855Z,1.23
2022-10-08T13:51:59.414Z,0.70
2022-10-08T13:53:01.868Z,1.13
2022-10-08T13:54:03.642Z,0.70
2022-10-08T13:55:16.168Z,0.90
2022-10-08T13:56:21.371Z,0.80
2022-10-08T13:57:23.442Z,1.00
2022-10-08T13:58:25.113Z,1.30
2022-10-08T13:59:30.463Z,1.53
2022-10-08T14:00:35.914Z,1.10
2022-10-08T14:01:37.789Z,1.00
2022-10-08T14:02:39.698Z,1.20
2022-10-08T14:03:41.526Z,1.00
2022-10-08T14:04:43.274Z,1.50
2022-10-08T14:05:48.158Z,0.97
2022-10-08T14:06:54.517Z,1.20
2022-10-08T14:08:04.151Z,1.03
2022-10-08T14:09:08.537Z,1.00
2022-10-08T14:10:13.526Z,1.00
2022-10-08T14:11:18.182Z,0.97
2022-10-08T14:12:23.965Z,1.10
2022-10-08T14:13:26.289Z,1.10
2022-10-08T14:14:28.684Z,1.10
2022-10-08T14:15:30.497Z,1.10
2022-10-08T14:16:33.515Z,1.03
2022-10-08T14:17:35.162Z,1.07
2022-10-08T14:18:36.796Z,1.53
2022-10-08T14:19:38.455Z,1.13
2022-10-08T14:20:40.293Z,0.70
2022-10-08T14:21:42.045Z,0.83
2022-10-08T14:22:43.755Z,0.93
2022-10-08T14:23:45.364Z,0.90
2022-10-08T14:24:47.303Z,1.43
2022-10-08T14:25:48.941Z,1.10
2022-10-08T14:26:51.010Z,0.97
2022-10-08T14:27:53.041Z,1.10
2022-10-08T14:28:54.866Z,1.10
2022-10-08T14:29:56.755Z,1.10
2022-10-08T14:30:58.705Z,1.50
2022-10-08T14:32:00.892Z,2.40
2022-10-08T14:33:06.583Z,1.20
2022-10-08T14:34:12.448Z,1.97
2022-10-08T14:35:14.504Z,1.10
2022-10-08T14:36:18.890Z,1.43
2022-10-08T14:37:20.863Z,2.43
2022-10-08T14:38:25.310Z,1.10
2022-10-08T14:39:27.269Z,1.50
2022-10-08T14:40:28.849Z,1.13
2022-10-08T14:41:31.275Z,1.10
2022-10-08T14:42:33.443Z,1.60
2022-10-08T14:43:35.013Z,1.13
2022-10-08T14:44:36.780Z,1.40
2022-10-08T14:45:41.549Z,1.37
2022-10-08T14:46:44.465Z,1.10